sensor_id;sensor_type;location;lat;lon;timestamp;P1;durP1;ratioP1;P2;durP2;ratioP2
41687;SDS011;27371;42.686;23.362;2022-07-09T00:00:21;5.13;;;4.57;;
41687;SDS011;27371;42.686;23.362;2022-07-09T00:02:46;5.03;;;4.47;;
41687;SDS011;27371;42.686;23.362;2022-07-09T00:05:12;6.57;;;4.50;;
41687;SDS011;27371;42.686;23.362;2022-07-09T00:07:38;5.40;;;4.60;;
41687;SDS011;27371;42.686;23.362;2022-07-09T00:10:04;5.88;;;4.72;;
41687;SDS011;27371;42.686;23.362;2022-07-09T00:12:30;6.28;;;4.60;;
41687;SDS011;27371;42.686;23.362;2022-07-09T00:14:56;7.68;;;5.82;;
41687;SDS011;27371;42.686;23.362;2022-07-09T00:17:22;6.78;;;6.18;;
41687;SDS011;27371;42.686;23.362;2022-07-09T00:19:47;9.73;;;5.95;;
41687;SDS011;27371;42.686;23.362;2022-07-09T00:22:13;7.53;;;5.05;;
41687;SDS011;27371;42.686;23.362;2022-07-09T00:24:38;4.88;;;4.15;;
41687;SDS011;27371;42.686;23.362;2022-07-09T00:27:04;3.92;;;3.58;;
41687;SDS011;27371;42.686;23.362;2022-07-09T00:29:30;7.68;;;3.63;;
41687;SDS011;27371;42.686;23.362;2022-07-09T00:31:55;5.70;;;3.63;;
41687;SDS011;27371;42.686;23.362;2022-07-09T00:34:21;3.95;;;2.83;;
41687;SDS011;27371;42.686;23.362;2022-07-09T00:36:46;7.93;;;3.65;;
41687;SDS011;27371;42.686;23.362;2022-07-09T00:39:12;4.25;;;3.40;;
41687;SDS011;27371;42.686;23.362;2022-07-09T00:41:38;3.75;;;2.90;;
41687;SDS011;27371;42.686;23.362;2022-07-09T00:44:03;5.15;;;2.92;;
41687;SDS011;27371;42.686;23.362;2022-07-09T00:46:29;4.18;;;2.88;;
41687;SDS011;27371;42.686;23.362;2022-07-09T00:48:54;3.70;;;3.05;;
41687;SDS011;27371;42.686;23.362;2022-07-09T00:51:20;3.25;;;2.65;;
41687;SDS011;27371;42.686;23.362;2022-07-09T00:53:45;3.15;;;2.85;;
41687;SDS011;27371;42.686;23.362;2022-07-09T00:56:13;4.10;;;2.80;;
41687;SDS011;27371;42.686;23.362;2022-07-09T00:58:40;3.78;;;2.90;;
41687;SDS011;27371;42.686;23.362;2022-07-09T01:01:07;3.38;;;2.63;;
41687;SDS011;27371;42.686;23.362;2022-07-09T01:03:33;3.05;;;2.75;;
41687;SDS011;27371;42.686;23.362;2022-07-09T01:05:58;5.70;;;3.00;;
41687;SDS011;27371;42.686;23.362;2022-07-09T01:08:24;5.55;;;2.90;;
41687;SDS011;27371;42.686;23.362;2022-07-09T01:10:50;3.50;;;3.10;;
41687;SDS011;27371;42.686;23.362;2022-07-09T01:13:17;3.60;;;2.80;;
41687;SDS011;27371;42.686;23.362;2022-07-09T01:15:42;3.92;;;3.03;;
41687;SDS011;27371;42.686;23.362;2022-07-09T01:18:12;5.05;;;3.17;;
41687;SDS011;27371;42.686;23.362;2022-07-09T01:20:38;3.63;;;3.30;;
41687;SDS011;27371;42.686;23.362;2022-07-09T01:23:03;3.83;;;3.08;;
41687;SDS011;27371;42.686;23.362;2022-07-09T01:25:36;5.25;;;3.10;;
41687;SDS011;27371;42.686;23.362;2022-07-09T01:28:03;3.85;;;2.92;;
41687;SDS011;27371;42.686;23.362;2022-07-09T01:30:31;3.42;;;2.60;;
41687;SDS011;27371;42.686;23.362;2022-07-09T01:32:57;4.85;;;2.50;;
41687;SDS011;27371;42.686;23.362;2022-07-09T01:35:23;3.25;;;2.67;;
41687;SDS011;27371;42.686;23.362;2022-07-09T01:37:49;5.55;;;2.53;;
41687;SDS011;27371;42.686;23.362;2022-07-09T01:40:15;3.33;;;2.55;;
41687;SDS011;27371;42.686;23.362;2022-07-09T01:42:41;3.38;;;2.25;;
41687;SDS011;27371;42.686;23.362;2022-07-09T01:45:06;3.13;;;2.03;;
41687;SDS011;27371;42.686;23.362;2022-07-09T01:47:32;3.75;;;2.40;;
41687;SDS011;27371;42.686;23.362;2022-07-09T01:49:58;4.07;;;2.53;;
41687;SDS011;27371;42.686;23.362;2022-07-09T01:52:24;6.00;;;2.47;;
41687;SDS011;27371;42.686;23.362;2022-07-09T01:54:50;2.33;;;2.10;;
41687;SDS011;27371;42.686;23.362;2022-07-09T01:57:15;3.00;;;2.10;;
41687;SDS011;27371;42.686;23.362;2022-07-09T01:59:41;4.15;;;2.03;;
41687;SDS011;27371;42.686;23.362;2022-07-09T02:02:07;2.80;;;1.98;;
41687;SDS011;27371;42.686;23.362;2022-07-09T02:04:33;3.50;;;2.10;;
41687;SDS011;27371;42.686;23.362;2022-07-09T02:06:58;3.25;;;2.40;;
41687;SDS011;27371;42.686;23.362;2022-07-09T02:09:24;2.20;;;2.00;;
41687;SDS011;27371;42.686;23.362;2022-07-09T02:11:49;3.10;;;2.05;;
41687;SDS011;27371;42.686;23.362;2022-07-09T02:14:15;3.85;;;1.95;;
41687;SDS011;27371;42.686;23.362;2022-07-09T02:16:41;2.88;;;2.00;;
41687;SDS011;27371;42.686;23.362;2022-07-09T02:19:07;3.80;;;2.35;;
41687;SDS011;27371;42.686;23.362;2022-07-09T02:21:32;4.25;;;1.90;;
41687;SDS011;27371;42.686;23.362;2022-07-09T02:23:58;3.63;;;1.98;;
41687;SDS011;27371;42.686;23.362;2022-07-09T02:26:25;3.55;;;2.00;;
41687;SDS011;27371;42.686;23.362;2022-07-09T02:28:53;2.65;;;1.95;;
41687;SDS011;27371;42.686;23.362;2022-07-09T02:31:19;2.42;;;1.85;;
41687;SDS011;27371;42.686;23.362;2022-07-09T02:33:45;3.38;;;2.00;;
41687;SDS011;27371;42.686;23.362;2022-07-09T02:36:10;2.95;;;1.80;;
41687;SDS011;27371;42.686;23.362;2022-07-09T02:38:36;4.28;;;2.13;;
41687;SDS011;27371;42.686;23.362;2022-07-09T02:41:01;3.47;;;1.70;;
41687;SDS011;27371;42.686;23.362;2022-07-09T02:43:27;2.92;;;2.25;;
41687;SDS011;27371;42.686;23.362;2022-07-09T02:45:53;3.25;;;1.70;;
41687;SDS011;27371;42.686;23.362;2022-07-09T02:48:22;3.75;;;2.42;;
41687;SDS011;27371;42.686;23.362;2022-07-09T02:50:51;3.50;;;1.90;;
41687;SDS011;27371;42.686;23.362;2022-07-09T02:53:17;3.08;;;1.70;;
41687;SDS011;27371;42.686;23.362;2022-07-09T02:55:44;2.10;;;1.90;;
41687;SDS011;27371;42.686;23.362;2022-07-09T02:58:09;2.72;;;1.90;;
41687;SDS011;27371;42.686;23.362;2022-07-09T03:00:39;1.88;;;1.58;;
41687;SDS011;27371;42.686;23.362;2022-07-09T03:03:05;2.85;;;2.13;;
41687;SDS011;27371;42.686;23.362;2022-07-09T03:05:31;2.33;;;1.88;;
41687;SDS011;27371;42.686;23.362;2022-07-09T03:07:57;1.95;;;1.75;;
41687;SDS011;27371;42.686;23.362;2022-07-09T03:10:22;2.72;;;1.77;;
41687;SDS011;27371;42.686;23.362;2022-07-09T03:12:48;2.83;;;1.67;;
41687;SDS011;27371;42.686;23.362;2022-07-09T03:15:13;2.60;;;1.88;;
41687;SDS011;27371;42.686;23.362;2022-07-09T03:17:42;4.07;;;1.90;;
41687;SDS011;27371;42.686;23.362;2022-07-09T03:20:08;3.70;;;2.10;;
41687;SDS011;27371;42.686;23.362;2022-07-09T03:22:34;2.30;;;2.05;;
41687;SDS011;27371;42.686;23.362;2022-07-09T03:25:00;2.13;;;1.80;;
41687;SDS011;27371;42.686;23.362;2022-07-09T03:27:29;2.28;;;1.63;;
41687;SDS011;27371;42.686;23.362;2022-07-09T03:29:55;3.03;;;1.70;;
41687;SDS011;27371;42.686;23.362;2022-07-09T03:32:20;3.03;;;2.08;;
41687;SDS011;27371;42.686;23.362;2022-07-09T03:34:46;3.75;;;2.53;;
41687;SDS011;27371;42.686;23.362;2022-07-09T03:37:12;4.30;;;1.90;;
41687;SDS011;27371;42.686;23.362;2022-07-09T03:39:38;4.40;;;2.33;;
41687;SDS011;27371;42.686;23.362;2022-07-09T03:42:04;2.53;;;2.33;;
41687;SDS011;27371;42.686;23.362;2022-07-09T03:44:32;3.22;;;2.05;;
41687;SDS011;27371;42.686;23.362;2022-07-09T03:46:58;2.80;;;1.90;;
41687;SDS011;27371;42.686;23.362;2022-07-09T03:49:24;2.40;;;2.13;;
41687;SDS011;27371;42.686;23.362;2022-07-09T03:51:49;3.17;;;2.38;;
41687;SDS011;27371;42.686;23.362;2022-07-09T03:54:17;2.00;;;1.67;;
41687;SDS011;27371;42.686;23.362;2022-07-09T03:56:43;3.20;;;2.50;;
41687;SDS011;27371;42.686;23.362;2022-07-09T03:59:08;2.58;;;1.85;;
41687;SDS011;27371;42.686;23.362;2022-07-09T04:01:34;2.80;;;2.08;;
41687;SDS011;27371;42.686;23.362;2022-07-09T04:04:00;3.00;;;2.72;;
41687;SDS011;27371;42.686;23.362;2022-07-09T04:06:25;6.10;;;2.72;;
41687;SDS011;27371;42.686;23.362;2022-07-09T04:08:51;3.53;;;3.22;;
41687;SDS011;27371;42.686;23.362;2022-07-09T04:11:17;5.03;;;3.13;;
41687;SDS011;27371;42.686;23.362;2022-07-09T04:13:43;3.97;;;2.83;;
41687;SDS011;27371;42.686;23.362;2022-07-09T04:16:08;3.30;;;2.92;;
41687;SDS011;27371;42.686;23.362;2022-07-09T04:18:34;5.38;;;2.97;;
41687;SDS011;27371;42.686;23.362;2022-07-09T04:21:00;6.35;;;2.65;;
41687;SDS011;27371;42.686;23.362;2022-07-09T04:23:26;3.70;;;2.47;;
41687;SDS011;27371;42.686;23.362;2022-07-09T04:25:52;2.78;;;2.03;;
41687;SDS011;27371;42.686;23.362;2022-07-09T04:28:18;2.65;;;2.13;;
41687;SDS011;27371;42.686;23.362;2022-07-09T04:30:44;3.13;;;1.90;;
41687;SDS011;27371;42.686;23.362;2022-07-09T04:33:11;6.97;;;1.98;;
41687;SDS011;27371;42.686;23.362;2022-07-09T04:35:36;2.35;;;2.15;;
41687;SDS011;27371;42.686;23.362;2022-07-09T04:38:03;3.45;;;2.00;;
41687;SDS011;27371;42.686;23.362;2022-07-09T04:40:28;3.25;;;2.10;;
41687;SDS011;27371;42.686;23.362;2022-07-09T04:42:54;4.47;;;2.08;;
41687;SDS011;27371;42.686;23.362;2022-07-09T04:45:20;2.70;;;2.00;;
41687;SDS011;27371;42.686;23.362;2022-07-09T04:47:46;2.72;;;2.15;;
41687;SDS011;27371;42.686;23.362;2022-07-09T04:50:12;4.65;;;2.50;;
41687;SDS011;27371;42.686;23.362;2022-07-09T04:52:37;2.72;;;2.50;;
41687;SDS011;27371;42.686;23.362;2022-07-09T04:55:04;2.42;;;2.10;;
41687;SDS011;27371;42.686;23.362;2022-07-09T04:57:30;6.13;;;2.30;;
41687;SDS011;27371;42.686;23.362;2022-07-09T04:59:59;6.15;;;2.58;;
41687;SDS011;27371;42.686;23.362;2022-07-09T05:02:25;2.53;;;2.15;;
41687;SDS011;27371;42.686;23.362;2022-07-09T05:04:54;3.08;;;2.55;;
41687;SDS011;27371;42.686;23.362;2022-07-09T05:07:20;3.28;;;2.50;;
41687;SDS011;27371;42.686;23.362;2022-07-09T05:09:45;2.90;;;2.60;;
41687;SDS011;27371;42.686;23.362;2022-07-09T05:12:11;3.60;;;2.58;;
41687;SDS011;27371;42.686;23.362;2022-07-09T05:14:37;3.65;;;2.35;;
41687;SDS011;27371;42.686;23.362;2022-07-09T05:17:03;2.47;;;2.15;;
41687;SDS011;27371;42.686;23.362;2022-07-09T05:19:29;4.25;;;2.40;;
41687;SDS011;27371;42.686;23.362;2022-07-09T05:21:55;2.28;;;2.08;;
41687;SDS011;27371;42.686;23.362;2022-07-09T05:24:20;2.97;;;2.20;;
41687;SDS011;27371;42.686;23.362;2022-07-09T05:26:46;6.55;;;2.38;;
41687;SDS011;27371;42.686;23.362;2022-07-09T05:29:12;3.20;;;2.38;;
41687;SDS011;27371;42.686;23.362;2022-07-09T05:31:37;2.67;;;2.30;;
41687;SDS011;27371;42.686;23.362;2022-07-09T05:34:03;2.42;;;1.95;;
41687;SDS011;27371;42.686;23.362;2022-07-09T05:36:29;3.33;;;2.13;;
41687;SDS011;27371;42.686;23.362;2022-07-09T05:38:58;4.13;;;2.42;;
41687;SDS011;27371;42.686;23.362;2022-07-09T05:41:25;2.78;;;2.10;;
41687;SDS011;27371;42.686;23.362;2022-07-09T05:43:51;2.30;;;1.95;;
41687;SDS011;27371;42.686;23.362;2022-07-09T05:46:17;4.55;;;2.22;;
41687;SDS011;27371;42.686;23.362;2022-07-09T05:48:43;4.68;;;2.63;;
41687;SDS011;27371;42.686;23.362;2022-07-09T05:51:08;2.75;;;2.30;;
41687;SDS011;27371;42.686;23.362;2022-07-09T05:53:34;2.25;;;1.95;;
41687;SDS011;27371;42.686;23.362;2022-07-09T05:55:59;4.53;;;2.13;;
41687;SDS011;27371;42.686;23.362;2022-07-09T05:58:25;3.65;;;1.98;;
41687;SDS011;27371;42.686;23.362;2022-07-09T06:00:51;2.17;;;1.70;;
41687;SDS011;27371;42.686;23.362;2022-07-09T06:03:16;3.17;;;1.92;;
41687;SDS011;27371;42.686;23.362;2022-07-09T06:05:42;3.80;;;2.45;;
41687;SDS011;27371;42.686;23.362;2022-07-09T06:08:07;4.38;;;2.72;;
41687;SDS011;27371;42.686;23.362;2022-07-09T06:10:34;4.25;;;2.58;;
41687;SDS011;27371;42.686;23.362;2022-07-09T06:13:00;3.83;;;1.80;;
41687;SDS011;27371;42.686;23.362;2022-07-09T06:15:25;2.40;;;1.80;;
41687;SDS011;27371;42.686;23.362;2022-07-09T06:17:54;2.35;;;1.83;;
41687;SDS011;27371;42.686;23.362;2022-07-09T06:20:20;2.70;;;1.83;;
41687;SDS011;27371;42.686;23.362;2022-07-09T06:22:46;2.78;;;1.83;;
41687;SDS011;27371;42.686;23.362;2022-07-09T06:25:12;2.60;;;2.10;;
41687;SDS011;27371;42.686;23.362;2022-07-09T06:27:37;3.92;;;1.92;;
41687;SDS011;27371;42.686;23.362;2022-07-09T06:30:05;4.82;;;2.40;;
41687;SDS011;27371;42.686;23.362;2022-07-09T06:32:31;3.22;;;1.95;;
41687;SDS011;27371;42.686;23.362;2022-07-09T06:34:56;2.17;;;1.55;;
41687;SDS011;27371;42.686;23.362;2022-07-09T06:37:22;1.95;;;1.75;;
41687;SDS011;27371;42.686;23.362;2022-07-09T06:39:47;4.05;;;2.10;;
41687;SDS011;27371;42.686;23.362;2022-07-09T06:42:16;3.50;;;1.90;;
41687;SDS011;27371;42.686;23.362;2022-07-09T06:44:43;4.38;;;1.70;;
41687;SDS011;27371;42.686;23.362;2022-07-09T06:47:09;2.35;;;1.40;;
41687;SDS011;27371;42.686;23.362;2022-07-09T06:49:35;3.92;;;2.05;;
41687;SDS011;27371;42.686;23.362;2022-07-09T06:52:01;3.03;;;1.58;;
41687;SDS011;27371;42.686;23.362;2022-07-09T06:54:27;3.58;;;1.70;;
41687;SDS011;27371;42.686;23.362;2022-07-09T06:56:52;2.42;;;2.08;;
41687;SDS011;27371;42.686;23.362;2022-07-09T06:59:18;3.42;;;2.53;;
41687;SDS011;27371;42.686;23.362;2022-07-09T07:01:44;2.83;;;2.50;;
41687;SDS011;27371;42.686;23.362;2022-07-09T07:04:10;2.88;;;2.58;;
41687;SDS011;27371;42.686;23.362;2022-07-09T07:06:39;3.83;;;2.42;;
41687;SDS011;27371;42.686;23.362;2022-07-09T07:09:08;4.32;;;2.08;;
41687;SDS011;27371;42.686;23.362;2022-07-09T07:11:34;2.92;;;1.85;;
41687;SDS011;27371;42.686;23.362;2022-07-09T07:14:00;2.30;;;1.80;;
41687;SDS011;27371;42.686;23.362;2022-07-09T07:16:25;2.88;;;1.70;;
41687;SDS011;27371;42.686;23.362;2022-07-09T07:18:51;2.78;;;1.70;;
41687;SDS011;27371;42.686;23.362;2022-07-09T07:21:18;2.50;;;1.88;;
41687;SDS011;27371;42.686;23.362;2022-07-09T07:23:44;2.35;;;1.80;;
41687;SDS011;27371;42.686;23.362;2022-07-09T07:26:10;2.38;;;1.50;;
41687;SDS011;27371;42.686;23.362;2022-07-09T07:28:35;2.47;;;2.10;;
41687;SDS011;27371;42.686;23.362;2022-07-09T07:31:01;2.35;;;2.10;;
41687;SDS011;27371;42.686;23.362;2022-07-09T07:33:26;3.13;;;1.90;;
41687;SDS011;27371;42.686;23.362;2022-07-09T07:35:52;5.50;;;2.17;;
41687;SDS011;27371;42.686;23.362;2022-07-09T07:38:17;3.53;;;2.78;;
41687;SDS011;27371;42.686;23.362;2022-07-09T07:40:43;4.60;;;2.60;;
41687;SDS011;27371;42.686;23.362;2022-07-09T07:43:12;4.18;;;2.58;;
41687;SDS011;27371;42.686;23.362;2022-07-09T07:45:38;3.58;;;2.30;;
41687;SDS011;27371;42.686;23.362;2022-07-09T07:48:04;3.22;;;2.60;;
41687;SDS011;27371;42.686;23.362;2022-07-09T07:50:30;5.80;;;2.45;;
41687;SDS011;27371;42.686;23.362;2022-07-09T07:52:55;4.65;;;2.50;;
41687;SDS011;27371;42.686;23.362;2022-07-09T07:55:21;4.78;;;2.72;;
41687;SDS011;27371;42.686;23.362;2022-07-09T07:57:47;2.92;;;2.65;;
41687;SDS011;27371;42.686;23.362;2022-07-09T08:00:13;4.68;;;2.97;;
41687;SDS011;27371;42.686;23.362;2022-07-09T08:02:39;5.53;;;2.55;;
41687;SDS011;27371;42.686;23.362;2022-07-09T08:05:05;3.33;;;2.20;;
41687;SDS011;27371;42.686;23.362;2022-07-09T08:07:31;2.50;;;2.20;;
41687;SDS011;27371;42.686;23.362;2022-07-09T08:09:57;2.50;;;2.25;;
41687;SDS011;27371;42.686;23.362;2022-07-09T08:12:23;4.25;;;3.00;;
41687;SDS011;27371;42.686;23.362;2022-07-09T08:14:48;4.57;;;2.33;;
41687;SDS011;27371;42.686;23.362;2022-07-09T08:17:14;4.50;;;1.98;;
41687;SDS011;27371;42.686;23.362;2022-07-09T08:19:39;3.28;;;2.00;;
41687;SDS011;27371;42.686;23.362;2022-07-09T08:22:05;4.07;;;2.10;;
41687;SDS011;27371;42.686;23.362;2022-07-09T08:24:30;5.68;;;3.58;;
41687;SDS011;27371;42.686;23.362;2022-07-09T08:26:56;5.10;;;3.40;;
41687;SDS011;27371;42.686;23.362;2022-07-09T08:29:23;4.60;;;2.25;;
41687;SDS011;27371;42.686;23.362;2022-07-09T08:31:49;4.32;;;2.30;;
41687;SDS011;27371;42.686;23.362;2022-07-09T08:34:15;4.70;;;2.28;;
41687;SDS011;27371;42.686;23.362;2022-07-09T08:36:40;4.82;;;2.10;;
41687;SDS011;27371;42.686;23.362;2022-07-09T08:39:06;5.78;;;2.38;;
41687;SDS011;27371;42.686;23.362;2022-07-09T08:41:31;3.35;;;2.40;;
41687;SDS011;27371;42.686;23.362;2022-07-09T08:43:57;1.95;;;1.60;;
41687;SDS011;27371;42.686;23.362;2022-07-09T08:46:22;3.50;;;1.70;;
41687;SDS011;27371;42.686;23.362;2022-07-09T08:48:48;4.07;;;3.22;;
41687;SDS011;27371;42.686;23.362;2022-07-09T08:51:14;3.47;;;1.95;;
41687;SDS011;27371;42.686;23.362;2022-07-09T08:53:41;4.88;;;2.53;;
41687;SDS011;27371;42.686;23.362;2022-07-09T08:56:09;2.20;;;2.00;;
41687;SDS011;27371;42.686;23.362;2022-07-09T08:58:35;2.75;;;2.03;;
41687;SDS011;27371;42.686;23.362;2022-07-09T09:01:00;4.75;;;2.10;;
41687;SDS011;27371;42.686;23.362;2022-07-09T09:03:26;4.47;;;1.95;;
41687;SDS011;27371;42.686;23.362;2022-07-09T09:06:05;3.25;;;2.25;;
41687;SDS011;27371;42.686;23.362;2022-07-09T09:08:40;3.05;;;2.60;;
41687;SDS011;27371;42.686;23.362;2022-07-09T09:11:21;4.30;;;2.17;;
41687;SDS011;27371;42.686;23.362;2022-07-09T09:13:48;2.28;;;2.03;;
41687;SDS011;27371;42.686;23.362;2022-07-09T09:16:15;4.45;;;3.05;;
41687;SDS011;27371;42.686;23.362;2022-07-09T09:18:43;5.10;;;2.90;;
41687;SDS011;27371;42.686;23.362;2022-07-09T09:21:10;4.40;;;3.00;;
41687;SDS011;27371;42.686;23.362;2022-07-09T09:23:41;3.42;;;2.50;;
41687;SDS011;27371;42.686;23.362;2022-07-09T09:26:11;3.53;;;2.60;;
41687;SDS011;27371;42.686;23.362;2022-07-09T09:28:45;3.70;;;2.83;;
41687;SDS011;27371;42.686;23.362;2022-07-09T09:33:56;5.22;;;2.75;;
41687;SDS011;27371;42.686;23.362;2022-07-09T09:36:37;4.90;;;2.83;;
41687;SDS011;27371;42.686;23.362;2022-07-09T09:44:06;3.08;;;2.53;;
41687;SDS011;27371;42.686;23.362;2022-07-09T09:46:35;5.35;;;2.50;;
41687;SDS011;27371;42.686;23.362;2022-07-09T09:49:02;3.65;;;2.67;;
41687;SDS011;27371;42.686;23.362;2022-07-09T09:51:31;3.92;;;2.60;;
41687;SDS011;27371;42.686;23.362;2022-07-09T09:53:59;4.75;;;2.50;;
41687;SDS011;27371;42.686;23.362;2022-07-09T09:56:26;4.95;;;2.58;;
41687;SDS011;27371;42.686;23.362;2022-07-09T09:58:54;4.15;;;2.70;;
41687;SDS011;27371;42.686;23.362;2022-07-09T10:01:20;5.10;;;2.65;;
41687;SDS011;27371;42.686;23.362;2022-07-09T10:03:46;6.95;;;2.65;;
41687;SDS011;27371;42.686;23.362;2022-07-09T10:06:13;3.78;;;2.50;;
41687;SDS011;27371;42.686;23.362;2022-07-09T10:08:38;3.72;;;2.22;;
41687;SDS011;27371;42.686;23.362;2022-07-09T10:11:04;2.90;;;2.60;;
41687;SDS011;27371;42.686;23.362;2022-07-09T10:13:31;4.35;;;2.50;;
41687;SDS011;27371;42.686;23.362;2022-07-09T10:15:56;3.50;;;3.08;;
41687;SDS011;27371;42.686;23.362;2022-07-09T10:18:23;2.70;;;2.40;;
41687;SDS011;27371;42.686;23.362;2022-07-09T10:20:54;2.58;;;2.20;;
41687;SDS011;27371;42.686;23.362;2022-07-09T10:23:22;3.67;;;2.63;;
41687;SDS011;27371;42.686;23.362;2022-07-09T10:25:49;2.72;;;2.28;;
41687;SDS011;27371;42.686;23.362;2022-07-09T10:28:21;3.22;;;1.80;;
41687;SDS011;27371;42.686;23.362;2022-07-09T10:30:47;4.53;;;2.00;;
41687;SDS011;27371;42.686;23.362;2022-07-09T10:33:21;3.75;;;1.73;;
41687;SDS011;27371;42.686;23.362;2022-07-09T10:35:52;2.33;;;1.90;;
41687;SDS011;27371;42.686;23.362;2022-07-09T10:38:19;5.03;;;2.00;;
41687;SDS011;27371;42.686;23.362;2022-07-09T10:40:56;3.33;;;2.20;;
41687;SDS011;27371;42.686;23.362;2022-07-09T10:43:39;3.42;;;1.75;;
41687;SDS011;27371;42.686;23.362;2022-07-09T10:46:13;1.63;;;1.30;;
41687;SDS011;27371;42.686;23.362;2022-07-09T10:48:39;1.80;;;1.40;;
41687;SDS011;27371;42.686;23.362;2022-07-09T10:51:05;1.58;;;0.90;;
41687;SDS011;27371;42.686;23.362;2022-07-09T10:53:31;2.90;;;1.02;;
41687;SDS011;27371;42.686;23.362;2022-07-09T10:55:58;2.40;;;1.15;;
41687;SDS011;27371;42.686;23.362;2022-07-09T10:58:24;2.30;;;1.42;;
41687;SDS011;27371;42.686;23.362;2022-07-09T11:01:09;4.95;;;2.00;;
41687;SDS011;27371;42.686;23.362;2022-07-09T11:03:35;3.15;;;2.30;;
41687;SDS011;27371;42.686;23.362;2022-07-09T11:06:01;2.22;;;1.58;;
41687;SDS011;27371;42.686;23.362;2022-07-09T11:08:26;3.28;;;1.63;;
41687;SDS011;27371;42.686;23.362;2022-07-09T11:10:52;3.88;;;1.58;;
41687;SDS011;27371;42.686;23.362;2022-07-09T11:13:17;4.22;;;1.30;;
41687;SDS011;27371;42.686;23.362;2022-07-09T11:15:48;2.40;;;1.63;;
41687;SDS011;27371;42.686;23.362;2022-07-09T11:18:14;1.85;;;1.10;;
41687;SDS011;27371;42.686;23.362;2022-07-09T11:20:43;1.30;;;1.10;;
41687;SDS011;27371;42.686;23.362;2022-07-09T11:23:10;1.73;;;1.30;;
41687;SDS011;27371;42.686;23.362;2022-07-09T11:25:37;6.55;;;1.33;;
41687;SDS011;27371;42.686;23.362;2022-07-09T11:28:03;3.63;;;1.70;;
41687;SDS011;27371;42.686;23.362;2022-07-09T11:30:28;3.00;;;1.42;;
41687;SDS011;27371;42.686;23.362;2022-07-09T11:32:55;1.50;;;1.30;;
41687;SDS011;27371;42.686;23.362;2022-07-09T11:37:50;3.38;;;1.27;;
41687;SDS011;27371;42.686;23.362;2022-07-09T11:40:17;2.33;;;1.67;;
41687;SDS011;27371;42.686;23.362;2022-07-09T11:42:43;6.50;;;1.23;;
41687;SDS011;27371;42.686;23.362;2022-07-09T11:45:10;1.55;;;1.10;;
41687;SDS011;27371;42.686;23.362;2022-07-09T11:47:37;2.95;;;1.55;;
41687;SDS011;27371;42.686;23.362;2022-07-09T11:50:07;3.45;;;1.30;;
41687;SDS011;27371;42.686;23.362;2022-07-09T11:52:48;2.72;;;1.40;;
41687;SDS011;27371;42.686;23.362;2022-07-09T11:55:15;1.90;;;1.17;;
41687;SDS011;27371;42.686;23.362;2022-07-09T11:57:55;6.60;;;1.50;;
41687;SDS011;27371;42.686;23.362;2022-07-09T12:00:28;3.17;;;1.10;;
41687;SDS011;27371;42.686;23.362;2022-07-09T12:02:55;1.58;;;0.95;;
41687;SDS011;27371;42.686;23.362;2022-07-09T12:05:26;1.77;;;1.15;;
41687;SDS011;27371;42.686;23.362;2022-07-09T12:07:55;3.45;;;1.63;;
41687;SDS011;27371;42.686;23.362;2022-07-09T12:10:29;1.70;;;1.20;;
41687;SDS011;27371;42.686;23.362;2022-07-09T12:12:56;2.58;;;1.20;;
41687;SDS011;27371;42.686;23.362;2022-07-09T12:15:22;4.32;;;2.40;;
41687;SDS011;27371;42.686;23.362;2022-07-09T12:17:52;4.80;;;1.65;;
41687;SDS011;27371;42.686;23.362;2022-07-09T12:20:19;3.45;;;1.40;;
41687;SDS011;27371;42.686;23.362;2022-07-09T12:22:49;1.70;;;1.20;;
41687;SDS011;27371;42.686;23.362;2022-07-09T12:25:14;3.25;;;1.10;;
41687;SDS011;27371;42.686;23.362;2022-07-09T12:27:40;2.55;;;1.05;;
41687;SDS011;27371;42.686;23.362;2022-07-09T12:30:06;2.17;;;1.00;;
41687;SDS011;27371;42.686;23.362;2022-07-09T12:32:33;5.47;;;1.85;;
41687;SDS011;27371;42.686;23.362;2022-07-09T12:34:59;2.83;;;1.52;;
41687;SDS011;27371;42.686;23.362;2022-07-09T12:37:25;2.88;;;1.50;;
41687;SDS011;27371;42.686;23.362;2022-07-09T12:39:52;1.25;;;1.10;;
41687;SDS011;27371;42.686;23.362;2022-07-09T12:42:19;2.70;;;1.52;;
41687;SDS011;27371;42.686;23.362;2022-07-09T12:44:45;1.98;;;1.15;;
41687;SDS011;27371;42.686;23.362;2022-07-09T12:47:10;1.92;;;1.30;;
41687;SDS011;27371;42.686;23.362;2022-07-09T12:49:36;4.57;;;1.40;;
41687;SDS011;27371;42.686;23.362;2022-07-09T12:52:02;2.13;;;1.20;;
41687;SDS011;27371;42.686;23.362;2022-07-09T12:54:27;2.65;;;1.10;;
41687;SDS011;27371;42.686;23.362;2022-07-09T12:56:53;3.40;;;1.15;;
41687;SDS011;27371;42.686;23.362;2022-07-09T12:59:20;5.72;;;0.90;;
41687;SDS011;27371;42.686;23.362;2022-07-09T13:01:46;2.25;;;1.13;;
41687;SDS011;27371;42.686;23.362;2022-07-09T13:04:11;5.78;;;1.30;;
41687;SDS011;27371;42.686;23.362;2022-07-09T13:06:37;1.55;;;0.80;;
41687;SDS011;27371;42.686;23.362;2022-07-09T13:09:04;3.58;;;1.00;;
41687;SDS011;27371;42.686;23.362;2022-07-09T13:11:31;2.13;;;0.80;;
41687;SDS011;27371;42.686;23.362;2022-07-09T13:13:57;1.80;;;0.85;;
41687;SDS011;27371;42.686;23.362;2022-07-09T13:16:23;3.10;;;1.08;;
41687;SDS011;27371;42.686;23.362;2022-07-09T13:18:49;1.70;;;0.73;;
41687;SDS011;27371;42.686;23.362;2022-07-09T13:21:16;2.53;;;1.25;;
41687;SDS011;27371;42.686;23.362;2022-07-09T13:23:44;2.40;;;1.10;;
41687;SDS011;27371;42.686;23.362;2022-07-09T13:26:10;0.90;;;0.80;;
41687;SDS011;27371;42.686;23.362;2022-07-09T13:28:36;3.13;;;1.10;;
41687;SDS011;27371;42.686;23.362;2022-07-09T13:31:02;3.65;;;0.98;;
41687;SDS011;27371;42.686;23.362;2022-07-09T13:33:27;2.85;;;1.00;;
41687;SDS011;27371;42.686;23.362;2022-07-09T13:35:53;1.60;;;0.93;;
41687;SDS011;27371;42.686;23.362;2022-07-09T13:38:19;1.83;;;0.90;;
41687;SDS011;27371;42.686;23.362;2022-07-09T13:40:45;2.97;;;1.00;;
41687;SDS011;27371;42.686;23.362;2022-07-09T13:43:10;3.15;;;0.80;;
41687;SDS011;27371;42.686;23.362;2022-07-09T13:45:36;1.80;;;1.10;;
41687;SDS011;27371;42.686;23.362;2022-07-09T13:48:01;4.15;;;1.48;;
41687;SDS011;27371;42.686;23.362;2022-07-09T13:50:27;3.10;;;1.27;;
41687;SDS011;27371;42.686;23.362;2022-07-09T13:52:53;2.70;;;1.48;;
41687;SDS011;27371;42.686;23.362;2022-07-09T13:55:18;5.45;;;1.35;;
41687;SDS011;27371;42.686;23.362;2022-07-09T13:57:44;2.22;;;1.40;;
41687;SDS011;27371;42.686;23.362;2022-07-09T14:00:09;2.55;;;1.40;;
41687;SDS011;27371;42.686;23.362;2022-07-09T14:02:35;8.00;;;1.10;;
41687;SDS011;27371;42.686;23.362;2022-07-09T14:05:02;2.05;;;1.20;;
41687;SDS011;27371;42.686;23.362;2022-07-09T14:07:29;2.53;;;1.50;;
41687;SDS011;27371;42.686;23.362;2022-07-09T14:09:55;2.08;;;1.20;;
41687;SDS011;27371;42.686;23.362;2022-07-09T14:12:21;4.60;;;1.50;;
41687;SDS011;27371;42.686;23.362;2022-07-09T14:14:49;2.65;;;1.20;;
41687;SDS011;27371;42.686;23.362;2022-07-09T14:17:15;1.83;;;1.10;;
41687;SDS011;27371;42.686;23.362;2022-07-09T14:19:40;1.88;;;1.10;;
41687;SDS011;27371;42.686;23.362;2022-07-09T14:22:06;2.15;;;1.10;;
41687;SDS011;27371;42.686;23.362;2022-07-09T14:24:32;1.40;;;0.88;;
41687;SDS011;27371;42.686;23.362;2022-07-09T14:26:57;7.43;;;1.63;;
41687;SDS011;27371;42.686;23.362;2022-07-09T14:29:23;2.33;;;1.38;;
41687;SDS011;27371;42.686;23.362;2022-07-09T14:31:48;7.85;;;2.28;;
41687;SDS011;27371;42.686;23.362;2022-07-09T14:34:14;3.75;;;1.20;;
41687;SDS011;27371;42.686;23.362;2022-07-09T14:36:39;4.13;;;1.20;;
41687;SDS011;27371;42.686;23.362;2022-07-09T14:39:05;3.40;;;1.27;;